Time;durP1;ratioP1;P1;durP2;ratioP2;P2;SDS_P1;SDS_P2;PMS_P1;PMS_P2;Temp;Humidity;BMP_temperature;BMP_pressure;BME280_temperature;BME280_humidity;BME280_pressure;Samples;Min_cycle;Max_cycle;Signal;HPM_P1;HPM_P2
2022/10/24 00:01:09;;;;;;;;;;;;;;;22.07;59.64;100759.83;105573;1297;18290;-55
2022/10/24 00:03:37;;;;;;;;;;;;;;;22.07;59.54;100759.96;105655;1289;20245;-52
2022/10/24 00:06:04;;;;;;;;;5.00;5.00;;;;;22.07;59.59;100758.91;105585;1274;20792;-53
2022/10/24 00:08:31;;;;;;;;;6.00;6.00;;;;;22.06;59.62;100754.95;105607;1284;18934;-53
2022/10/24 00:10:58;;;;;;;;;8.50;8.00;;;;;22.07;59.48;100754.30;105527;1296;20151;-53
2022/10/24 00:13:26;;;;;;;;;7.00;7.00;;;;;22.07;59.68;100750.75;105567;1282;19264;-54
2022/10/24 00:15:53;;;;;;;;;6.00;5.00;;;;;22.08;59.45;100756.48;105597;1289;19539;-51
2022/10/24 00:18:20;;;;;;;;;6.00;6.00;;;;;22.08;59.67;100751.91;105618;1297;19748;-56
2022/10/24 00:20:48;;;;;;;;;8.00;6.00;;;;;22.06;59.63;100744.80;105582;1282;19301;-51
2022/10/24 00:23:15;;;;;;;;;6.00;6.00;;;;;22.05;59.46;100740.05;105568;1282;18469;-54
2022/10/24 00:25:42;;;;;;;;;10.00;8.00;;;;;22.05;59.64;100740.20;105585;1300;18533;-53
2022/10/24 00:28:10;;;;;;;;;6.00;6.00;;;;;22.06;59.48;100736.23;105602;1297;19483;-54
2022/10/24 00:30:37;;;;;;;;;8.00;6.00;;;;;22.05;59.43;100735.23;105672;1297;18829;-51
2022/10/24 00:33:04;;;;;;;;;8.00;8.00;;;;;22.04;59.50;100734.66;105566;1297;19071;-52
2022/10/24 00:35:31;;;;;;;;;6.00;6.00;;;;;22.04;59.46;100735.46;105601;1282;22887;-51
2022/10/24 00:37:59;;;;;;;;;9.00;8.00;;;;;22.04;59.44;100727.98;105561;1290;19621;-53
2022/10/24 00:40:26;;;;;;;;;6.00;6.00;;;;;22.05;59.51;100724.23;105541;1282;20197;-53
2022/10/24 00:42:53;;;;;;;;;8.00;8.00;;;;;22.04;59.40;100713.98;105597;1301;22786;-50
2022/10/24 00:45:21;;;;;;;;;6.00;6.00;;;;;22.04;59.50;100713.45;105598;1282;18388;-52
2022/10/24 00:47:48;;;;;;;;;6.00;6.00;;;;;22.04;59.55;100710.17;105555;1282;20056;-56
2022/10/24 00:50:15;;;;;;;;;;;;;;;22.04;59.50;100704.89;105571;1297;19516;-52
2022/10/24 00:52:42;;;;;;;;;5.50;5.00;;;;;22.04;59.36;100709.01;105548;1282;20102;-54
2022/10/24 00:55:10;;;;;;;;;5.00;5.00;;;;;22.05;59.32;100707.63;105586;1282;18528;-51
2022/10/24 00:57:37;;;;;;;;;6.00;6.00;;;;;22.05;59.27;100702.20;105577;1289;21242;-51
2022/10/24 01:00:04;;;;;;;;;6.00;6.00;;;;;22.05;59.42;100693.14;105499;1297;31382;-51
2022/10/24 01:02:32;;;;;;;;;6.00;6.00;;;;;22.04;59.27;100690.19;105534;1289;20064;-55
2022/10/24 01:04:59;;;;;;;;;6.00;5.00;;;;;22.05;59.43;100683.95;105552;1297;22154;-56
2022/10/24 01:07:26;;;;;;;;;6.00;6.00;;;;;22.05;59.38;100679.45;105581;1291;18354;-52
2022/10/24 01:09:54;;;;;;;;;7.00;6.00;;;;;22.05;59.24;100666.56;105641;1282;21416;-51
2022/10/24 01:12:21;;;;;;;;;;;;;;;22.05;59.21;100662.00;105613;1297;19603;-54
2022/10/24 01:14:48;;;;;;;;;6.00;6.00;;;;;22.03;59.22;100653.82;105566;1297;19941;-56
2022/10/24 01:17:16;;;;;;;;;6.00;5.00;;;;;22.02;59.30;100651.21;105598;1300;18930;-53
2022/10/24 01:19:44;;;;;;;;;6.00;6.00;;;;;22.04;59.34;100652.31;105639;1291;20834;-55
2022/10/24 01:22:11;;;;;;;;;6.00;6.00;;;;;22.03;59.25;100647.10;105549;1297;18537;-54
2022/10/24 01:24:38;;;;;;;;;5.00;5.00;;;;;22.03;59.36;100647.48;105591;1286;23860;-54
2022/10/24 01:27:05;;;;;;;;;;;;;;;22.02;59.23;100642.86;105565;1297;19472;-56
2022/10/24 01:29:33;;;;;;;;;6.00;6.00;;;;;22.03;59.33;100640.08;105599;1297;20098;-55
2022/10/24 01:32:00;;;;;;;;;6.00;6.00;;;;;22.03;59.13;100633.08;105607;1297;19954;-53
2022/10/24 01:34:28;;;;;;;;;6.00;6.00;;;;;22.03;59.33;100634.08;105612;1291;20734;-53
2022/10/24 01:36:55;;;;;;;;;8.00;8.00;;;;;22.04;59.20;100641.94;105620;1297;18517;-54
2022/10/24 01:39:22;;;;;;;;;;;;;;;22.05;59.13;100642.22;105671;1282;19996;-51
2022/10/24 01:41:49;;;;;;;;;6.00;5.00;;;;;22.03;59.08;100641.30;105628;1289;22622;-52
2022/10/24 01:44:17;;;;;;;;;5.00;5.00;;;;;22.03;59.17;100635.13;105624;1297;22789;-57
2022/10/24 01:46:44;;;;;;;;;5.00;5.00;;;;;22.02;59.10;100629.38;105610;1297;20127;-54
2022/10/24 01:49:11;;;;;;;;;4.00;4.00;;;;;22.02;59.11;100631.17;105584;1282;19308;-54
2022/10/24 01:51:39;;;;;;;;;9.00;6.00;;;;;22.02;59.22;100632.65;105613;1297;19599;-51
2022/10/24 01:54:06;;;;;;;;;4.00;4.00;;;;;22.02;59.12;100630.95;105594;1291;20299;-54
2022/10/24 01:56:33;;;;;;;;;5.00;5.00;;;;;22.02;59.19;100632.69;105620;1298;21021;-53
2022/10/24 01:59:00;;;;;;;;;10.00;8.00;;;;;22.02;59.18;100627.61;105573;1297;23421;-52
2022/10/24 02:01:28;;;;;;;;;5.00;5.00;;;;;22.02;58.99;100627.23;105578;1298;20080;-54
2022/10/24 02:03:55;;;;;;;;;4.00;4.00;;;;;22.02;59.17;100627.95;105620;1278;20588;-54
2022/10/24 02:06:22;;;;;;;;;5.00;5.00;;;;;22.02;59.04;100631.05;105594;1297;22704;-50
2022/10/24 02:08:50;;;;;;;;;5.00;4.00;;;;;22.02;58.98;100622.55;105603;1275;18732;-52
2022/10/24 02:11:17;;;;;;;;;6.00;5.00;;;;;22.02;59.07;100620.64;105588;1283;20959;-53
2022/10/24 02:13:45;;;;;;;;;6.00;6.00;;;;;22.01;59.11;100616.43;105634;1295;19633;-55
2022/10/24 02:16:12;;;;;;;;;5.00;5.00;;;;;22.01;59.12;100610.97;105597;1296;20085;-52
2022/10/24 02:18:39;;;;;;;;;5.00;5.00;;;;;22.01;58.96;100609.84;105660;1297;19276;-54
2022/10/24 02:21:07;;;;;;;;;6.50;6.50;;;;;22.01;59.13;100607.02;105590;1280;18521;-56
2022/10/24 02:23:34;;;;;;;;;5.00;4.00;;;;;22.01;59.10;100601.21;105598;1279;18671;-53
2022/10/24 02:26:01;;;;;;;;;5.00;5.00;;;;;22.01;58.99;100597.57;105605;1290;21125;-52
2022/10/24 02:28:29;;;;;;;;;5.00;5.00;;;;;22.00;58.97;100595.76;105594;1297;22754;-52
2022/10/24 02:30:56;;;;;;;;;5.00;5.00;;;;;22.00;59.00;100600.71;105586;1298;18414;-53
2022/10/24 02:33:23;;;;;;;;;6.00;5.00;;;;;22.02;58.91;100609.08;105633;1297;22196;-54
2022/10/24 02:35:51;;;;;;;;;5.00;5.00;;;;;22.00;58.91;100603.95;105619;1297;22935;-55
2022/10/24 02:38:18;;;;;;;;;;;;;;;22.01;59.00;100602.40;105568;1282;20105;-54
2022/10/24 02:40:46;;;;;;;;;5.00;5.00;;;;;22.02;58.84;100595.73;105619;1297;19318;-53
2022/10/24 02:43:13;;;;;;;;;8.00;6.00;;;;;22.00;59.01;100594.89;105607;1282;20568;-54
2022/10/24 02:45:40;;;;;;;;;5.00;5.00;;;;;22.00;58.84;100589.63;105666;1289;22222;-53
2022/10/24 02:48:08;;;;;;;;;;;;;;;22.00;58.89;100589.41;105619;1291;19350;-54
2022/10/24 02:50:35;;;;;;;;;4.00;4.00;;;;;22.00;58.98;100585.11;105625;1291;18389;-54
2022/10/24 02:53:02;;;;;;;;;;;;;;;22.00;58.98;100578.39;105626;1297;20037;-54
2022/10/24 02:55:29;;;;;;;;;4.00;4.00;;;;;22.01;59.01;100574.84;105574;1297;21088;-55
2022/10/24 02:57:57;;;;;;;;;5.50;5.50;;;;;22.00;58.89;100575.30;105635;1298;19183;-53
2022/10/24 03:00:24;;;;;;;;;5.00;4.00;;;;;22.00;58.81;100574.01;105643;1282;18504;-53
2022/10/24 03:02:51;;;;;;;;;5.00;5.00;;;;;22.01;58.92;100566.77;105623;1283;20803;-55
2022/10/24 03:05:19;;;;;;;;;6.00;5.50;;;;;22.00;58.82;100573.29;105613;1297;19575;-54
2022/10/24 03:07:46;;;;;;;;;5.00;4.50;;;;;22.00;58.73;100573.61;105625;1280;19994;-52
2022/10/24 03:10:13;;;;;;;;;6.00;6.00;;;;;22.00;58.86;100572.29;105571;1289;22814;-55
2022/10/24 03:12:41;;;;;;;;;4.50;4.50;;;;;22.00;58.95;100568.95;105659;1297;18434;-55
2022/10/24 03:15:08;;;;;;;;;6.00;6.00;;;;;21.99;58.89;100567.35;105620;1275;20189;-51
2022/10/24 03:17:35;;;;;;;;;5.00;5.00;;;;;22.00;58.82;100567.11;105620;1297;20600;-52
2022/10/24 03:20:03;;;;;;;;;6.00;5.00;;;;;21.99;58.78;100557.23;105596;1274;22346;-53
2022/10/24 03:22:30;;;;;;;;;5.00;5.00;;;;;21.99;58.83;100545.52;105632;1297;18850;-55
2022/10/24 03:25:00;;;;;;;;;6.00;6.00;;;;;21.99;58.83;100537.74;105592;1298;20971;-52
2022/10/24 03:27:28;;;;;;;;;5.00;4.00;;;;;21.99;58.84;100527.36;105619;1297;20012;-52
2022/10/24 03:29:55;;;;;;;;;;;;;;;21.98;58.86;100511.79;105604;1279;18645;-54
2022/10/24 03:32:22;;;;;;;;;6.00;5.00;;;;;21.99;58.75;100514.48;105604;1289;19580;-51
2022/10/24 03:34:49;;;;;;;;;6.00;6.00;;;;;21.98;58.64;100512.71;105595;1298;19468;-54
2022/10/24 03:37:17;;;;;;;;;;;;;;;21.99;58.81;100509.73;105497;1290;20052;-52
2022/10/24 03:39:44;;;;;;;;;5.50;5.00;;;;;21.98;58.69;100506.70;105624;1297;19646;-54
2022/10/24 03:42:11;;;;;;;;;6.00;6.00;;;;;21.98;58.82;100505.79;105618;1281;18115;-53
2022/10/24 03:44:39;;;;;;;;;5.50;5.50;;;;;21.99;58.69;100505.88;105614;1297;18594;-53
2022/10/24 03:47:07;;;;;;;;;6.00;6.00;;;;;22.00;58.61;100513.10;105623;1298;20483;-55
2022/10/24 03:49:34;;;;;;;;;4.50;4.00;;;;;21.99;58.68;100523.32;105597;1289;18619;-54
2022/10/24 03:52:02;;;;;;;;;5.00;5.00;;;;;21.98;58.67;100515.23;105606;1291;20183;-52
2022/10/24 03:54:29;;;;;;;;;5.00;5.00;;;;;21.99;58.66;100508.44;105620;1297;20797;-55
2022/10/24 03:56:56;;;;;;;;;6.00;5.67;;;;;21.99;58.69;100506.30;105648;1297;18450;-52
2022/10/24 03:59:23;;;;;;;;;;;;;;;21.99;58.75;100506.41;105607;1297;18661;-53
2022/10/24 04:01:51;;;;;;;;;5.50;5.50;;;;;21.99;58.60;100509.12;105632;1279;19494;-52
2022/10/24 04:04:18;;;;;;;;;5.00;5.00;;;;;21.99;58.70;100504.62;105437;1292;18674;-54
2022/10/24 04:06:45;;;;;;;;;5.00;5.00;;;;;21.99;58.70;100502.27;105610;1290;22586;-51
2022/10/24 04:09:13;;;;;;;;;5.00;5.00;;;;;21.99;58.60;100503.39;105525;1298;19625;-53
2022/10/24 04:11:40;;;;;;;;;4.00;4.00;;;;;21.98;58.76;100504.31;105488;1297;18518;-50
2022/10/24 04:14:08;;;;;;;;;5.00;5.00;;;;;21.98;58.65;100496.68;105517;1291;20045;-51
2022/10/24 04:16:35;;;;;;;;;6.00;6.00;;;;;21.98;58.80;100493.45;105491;1298;20885;-53
2022/10/24 04:19:03;;;;;;;;;5.50;5.50;;;;;21.98;58.67;100488.61;105513;1297;18586;-51
2022/10/24 04:21:30;;;;;;;;;5.00;5.00;;;;;21.98;58.76;100484.03;105593;1292;20257;-51
2022/10/24 04:23:57;;;;;;;;;5.00;4.50;;;;;21.98;58.72;100480.42;105525;1290;22728;-53
2022/10/24 04:26:25;;;;;;;;;5.00;4.50;;;;;21.98;58.75;100473.16;105496;1297;19445;-55
2022/10/24 04:28:52;;;;;;;;;5.00;5.00;;;;;21.98;58.51;100471.98;105426;1291;20267;-54
2022/10/24 04:31:19;;;;;;;;;4.00;4.00;;;;;21.97;58.61;100465.94;105625;1282;20663;-51
2022/10/24 04:33:47;;;;;;;;;6.00;5.00;;;;;21.98;58.44;100464.42;105584;1297;18425;-53
2022/10/24 04:36:14;;;;;;;;;4.00;4.00;;;;;21.98;58.75;100464.21;105583;1289;22315;-53
2022/10/24 04:38:41;;;;;;;;;4.50;4.50;;;;;21.98;58.47;100461.49;105541;1281;22402;-53
2022/10/24 04:41:08;;;;;;;;;6.00;5.00;;;;;21.97;58.40;100468.45;105509;1275;21541;-54
2022/10/24 04:43:36;;;;;;;;;5.00;5.00;;;;;21.98;58.53;100465.85;105444;1281;21918;-51
2022/10/24 04:46:03;;;;;;;;;;;;;;;21.97;58.56;100461.77;105440;1275;21034;-57
2022/10/24 04:48:30;;;;;;;;;5.00;5.00;;;;;21.97;58.63;100457.73;105538;1298;19482;-51
2022/10/24 04:50:58;;;;;;;;;6.00;6.00;;;;;21.97;58.50;100456.73;105586;1291;22715;-53
2022/10/24 04:53:25;;;;;;;;;5.00;5.00;;;;;21.97;58.59;100456.83;105614;1283;19405;-51
2022/10/24 04:55:52;;;;;;;;;5.00;5.00;;;;;21.96;58.59;100464.21;105619;1298;22055;-53
2022/10/24 04:58:20;;;;;;;;;5.00;5.00;;;;;21.97;58.50;100488.02;105492;1292;18886;-54
2022/10/24 05:00:49;;;;;;;;;8.00;5.00;;;;;21.97;58.51;100508.33;105713;1297;19562;-50
2022/10/24 05:03:16;;;;;;;;;5.50;5.50;;;;;21.97;58.69;100510.18;105607;1280;18704;-51
2022/10/24 05:05:43;;;;;;;;;5.00;5.00;;;;;21.98;58.50;100522.83;105530;1282;20112;-51
2022/10/24 05:08:10;;;;;;;;;8.00;6.00;;;;;21.97;58.60;100522.56;105573;1291;20722;-53
2022/10/24 05:10:38;;;;;;;;;5.00;5.00;;;;;21.98;58.64;100518.80;105605;1295;19927;-54
2022/10/24 05:13:05;;;;;;;;;5.50;5.00;;;;;21.98;58.38;100517.08;105607;1289;18832;-52
2022/10/24 05:15:32;;;;;;;;;5.00;5.00;;;;;22.00;58.52;100510.55;105493;1290;20754;-52
2022/10/24 05:18:00;;;;;;;;;7.00;6.00;;;;;22.01;58.59;100510.11;105414;1289;20777;-54
2022/10/24 05:20:27;;;;;;;;;5.00;5.00;;;;;22.03;58.75;100515.55;105517;1297;20262;-52
2022/10/24 05:22:54;;;;;;;;;5.00;5.00;;;;;22.07;59.03;100512.71;105462;1282;20720;-51
2022/10/24 05:25:21;;;;;;;;;5.00;5.00;;;;;22.09;59.77;100518.80;105455;1275;18490;-54
2022/10/24 05:27:49;;;;;;;;;6.00;5.00;;;;;22.13;60.22;100522.59;105604;1300;20294;-55
2022/10/24 05:30:16;;;;;;;;;9.50;8.50;;;;;22.16;60.68;100531.90;105536;1275;21014;-53
2022/10/24 05:32:44;;;;;;;;;6.00;6.00;;;;;22.16;61.15;100534.94;105545;1281;18539;-53
2022/10/24 05:35:12;;;;;;;;;5.00;5.00;;;;;22.17;61.00;100534.30;105363;1289;18533;-55
2022/10/24 05:37:39;;;;;;;;;8.00;8.00;;;;;22.20;61.49;100537.04;105469;1281;20861;-54
2022/10/24 05:40:06;;;;;;;;;6.00;6.00;;;;;22.22;62.17;100536.97;105434;1275;19939;-52
2022/10/24 05:42:34;;;;;;;;;8.00;6.00;;;;;22.22;62.82;100541.05;105559;1298;18859;-56
2022/10/24 05:45:01;;;;;;;;;8.00;6.00;;;;;22.21;62.56;100536.92;105577;1275;20620;-51
2022/10/24 05:47:28;;;;;;;;;4.50;4.50;;;;;22.17;62.49;100538.47;105525;1291;18716;-52
2022/10/24 05:49:56;;;;;;;;;7.00;7.00;;;;;22.15;62.39;100541.14;105608;1281;18548;-53
2022/10/24 05:52:23;;;;;;;;;6.00;6.00;;;;;22.14;62.37;100538.11;105617;1291;21014;-54
2022/10/24 05:54:50;;;;;;;;;;;;;;;22.14;62.32;100537.39;105639;1297;18457;-54
2022/10/24 05:57:17;;;;;;;;;5.00;5.00;;;;;22.15;61.99;100534.38;105643;1272;18284;-52
2022/10/24 05:59:45;;;;;;;;;5.00;5.00;;;;;22.15;61.88;100529.59;105633;1297;20820;-54
2022/10/24 06:02:12;;;;;;;;;6.00;6.00;;;;;22.18;61.79;100530.18;105637;1275;19614;-55
2022/10/24 06:04:39;;;;;;;;;5.00;5.00;;;;;22.18;61.57;100529.93;105592;1289;19916;-52
2022/10/24 06:07:06;;;;;;;;;7.00;7.00;;;;;22.20;61.63;100522.84;105493;1282;22343;-51
2022/10/24 06:09:34;;;;;;;;;;;;;;;22.19;61.69;100515.33;105529;1282;22831;-50
2022/10/24 06:12:01;;;;;;;;;9.00;8.00;;;;;22.17;61.82;100511.00;105555;1282;18199;-52
2022/10/24 06:14:28;;;;;;;;;5.00;5.00;;;;;22.15;61.77;100522.66;105552;1282;20942;-53
2022/10/24 06:16:56;;;;;;;;;9.00;8.00;;;;;22.13;61.76;100532.39;105546;1295;21014;-55
2022/10/24 06:19:23;;;;;;;;;7.00;7.00;;;;;22.12;61.85;100536.84;105515;1289;20380;-54
2022/10/24 06:21:50;;;;;;;;;7.00;6.00;;;;;22.11;61.79;100539.12;105584;1297;20736;-53
2022/10/24 06:24:17;;;;;;;;;6.00;6.00;;;;;22.11;61.50;100541.68;105551;1289;24011;-54
2022/10/24 06:26:45;;;;;;;;;5.00;5.00;;;;;22.11;61.48;100533.69;105519;1282;20206;-52
2022/10/24 06:29:12;;;;;;;;;9.00;8.00;;;;;22.10;61.29;100539.56;105548;1297;21014;-53
2022/10/24 06:31:39;;;;;;;;;5.00;5.00;;;;;22.09;61.20;100541.73;105500;1297;19804;-51
2022/10/24 06:34:07;;;;;;;;;8.50;8.00;;;;;22.10;61.07;100541.86;105498;1282;19982;-55
2022/10/24 06:36:35;;;;;;;;;6.00;5.50;;;;;22.10;61.20;100535.30;105493;1297;19507;-56
2022/10/24 06:39:03;;;;;;;;;9.00;8.00;;;;;22.09;60.82;100536.51;105478;1275;23688;-51
2022/10/24 06:41:30;;;;;;;;;9.00;9.00;;;;;22.06;61.00;100539.23;105462;1275;21585;-51
2022/10/24 06:43:57;;;;;;;;;6.00;5.00;;;;;22.05;60.93;100538.93;105502;1282;19326;-52
2022/10/24 06:46:24;;;;;;;;;8.00;8.00;;;;;22.07;60.93;100543.78;105512;1282;20060;-54
2022/10/24 06:48:52;;;;;;;;;8.00;8.00;;;;;22.07;60.92;100549.31;105546;1289;24236;-53
2022/10/24 06:51:19;;;;;;;;;5.00;5.00;;;;;22.08;60.78;100556.61;105523;1297;22171;-52
2022/10/24 06:53:46;;;;;;;;;6.00;6.00;;;;;22.06;60.77;100560.73;105571;1298;22630;-53
2022/10/24 06:56:13;;;;;;;;;8.00;8.00;;;;;22.05;60.54;100550.77;105535;1283;20233;-54
2022/10/24 06:58:41;;;;;;;;;;;;;;;22.08;60.42;100557.91;105567;1289;19347;-55
2022/10/24 07:01:08;;;;;;;;;9.00;9.00;;;;;22.09;60.39;100555.11;105553;1298;18335;-55
2022/10/24 07:03:36;;;;;;;;;11.00;11.00;;;;;22.07;60.50;100553.86;105680;1297;18647;-52
2022/10/24 07:06:03;;;;;;;;;10.00;9.00;;;;;22.08;60.38;100556.85;105569;1275;21216;-51
2022/10/24 07:08:30;;;;;;;;;9.00;9.00;;;;;22.09;60.30;100561.23;105574;1293;20024;-54
2022/10/24 07:10:57;;;;;;;;;9.00;9.00;;;;;22.11;60.46;100569.17;105546;1291;20357;-55
2022/10/24 07:13:25;;;;;;;;;;;;;;;22.12;60.28;100571.30;105491;1281;20715;-52
2022/10/24 07:15:54;;;;;;;;;9.00;8.00;;;;;22.13;60.30;100568.11;105588;1297;18542;-52
2022/10/24 07:18:21;;;;;;;;;9.00;8.50;;;;;22.13;60.30;100559.35;105564;1275;20693;-52
2022/10/24 07:20:48;;;;;;;;;8.67;8.00;;;;;22.13;60.34;100555.98;105598;1289;21027;-56
2022/10/24 07:23:15;;;;;;;;;6.00;6.00;;;;;22.13;60.36;100558.05;105589;1297;18438;-55
2022/10/24 07:25:43;;;;;;;;;6.00;5.00;;;;;22.13;60.43;100553.34;105567;1279;18623;-52
2022/10/24 07:28:11;;;;;;;;;12.00;12.00;;;;;22.13;60.23;100556.16;105540;1282;19611;-53
2022/10/24 07:30:38;;;;;;;;;14.00;13.00;;;;;22.11;60.17;100549.18;105582;1297;22815;-52
2022/10/24 07:33:05;;;;;;;;;10.00;10.00;;;;;22.10;60.29;100547.59;105533;1282;22703;-53
2022/10/24 07:35:32;;;;;;;;;13.00;13.00;;;;;22.10;60.16;100539.05;105540;1282;22693;-54
2022/10/24 07:38:00;;;;;;;;;9.00;9.00;;;;;22.09;60.11;100537.91;105548;1282;20208;-53
2022/10/24 07:40:27;;;;;;;;;10.00;10.00;;;;;22.09;60.13;100547.23;105547;1297;19158;-53
2022/10/24 07:42:54;;;;;;;;;10.00;7.00;;;;;22.10;60.10;100548.80;105547;1282;21018;-54
2022/10/24 07:45:21;;;;;;;;;9.00;9.00;;;;;22.09;60.27;100547.77;105540;1275;20182;-54
2022/10/24 07:47:49;;;;;;;;;6.00;6.00;;;;;22.09;60.30;100546.00;105549;1282;20084;-53
2022/10/24 07:50:16;;;;;;;;;9.00;9.00;;;;;22.09;60.18;100538.81;105456;1274;19480;-54
2022/10/24 07:52:43;;;;;;;;;8.00;6.00;;;;;22.13;60.19;100541.13;105598;1279;19657;-56
2022/10/24 07:55:11;;;;;;;;;8.00;8.00;;;;;22.15;60.17;100541.80;105594;1282;18348;-54
2022/10/24 07:57:38;;;;;;;;;6.00;6.00;;;;;22.17;60.28;100540.82;105572;1297;19628;-55
2022/10/24 08:00:05;;;;;;;;;10.00;9.00;;;;;22.17;60.28;100542.67;105456;1297;175823;-55
2022/10/24 08:02:33;;;;;;;;;12.00;12.00;;;;;22.17;60.31;100538.85;105592;1282;20324;-55
2022/10/24 08:05:00;;;;;;;;;6.00;6.00;;;;;22.18;60.38;100535.46;105526;1291;21042;-56
2022/10/24 08:07:28;;;;;;;;;8.00;8.00;;;;;22.18;60.52;100536.70;105482;1282;20171;-55
2022/10/24 08:09:56;;;;;;;;;4.00;4.00;;;;;22.19;60.39;100529.14;105445;1282;19994;-54
2022/10/24 08:12:23;;;;;;;;;9.00;9.00;;;;;22.20;60.53;100526.21;105482;1274;19200;-56
2022/10/24 08:14:51;;;;;;;;;10.00;9.00;;;;;22.19;60.32;100516.55;105391;1282;20362;-55
2022/10/24 08:17:18;;;;;;;;;8.00;8.00;;;;;22.20;60.33;100513.86;105281;1282;22252;-51
2022/10/24 08:19:46;;;;;;;;;13.00;13.00;;;;;22.20;60.38;100511.88;105373;1289;23472;-52
2022/10/24 08:22:13;;;;;;;;;8.00;8.00;;;;;22.20;60.35;100512.27;105361;1275;22887;-53
2022/10/24 08:24:40;;;;;;;;;7.00;7.00;;;;;22.20;60.36;100514.78;105532;1275;21133;-52
2022/10/24 08:27:07;;;;;;;;;5.00;5.00;;;;;22.20;60.26;100519.87;105496;1282;19486;-52
2022/10/24 08:29:35;;;;;;;;;10.00;10.00;;;;;22.20;60.28;100514.79;105457;1281;20833;-51
2022/10/24 08:32:02;;;;;;;;;10.00;9.00;;;;;22.21;60.37;100515.67;105411;1275;19144;-53
2022/10/24 08:34:29;;;;;;;;;15.00;13.00;;;;;22.22;60.17;100514.92;105293;1275;20893;-52
2022/10/24 08:36:56;;;;;;;;;18.00;18.00;;;;;22.20;59.95;100517.22;105475;1282;18823;-51
2022/10/24 08:39:24;;;;;;;;;18.00;17.00;;;;;22.17;59.62;100525.41;105325;1297;18834;-54
2022/10/24 08:41:52;;;;;;;;;12.50;12.00;;;;;22.13;59.39;100523.83;105378;1282;23272;-55
2022/10/24 08:44:20;;;;;;;;;18.00;17.00;;;;;22.13;59.49;100524.33;105408;1300;20292;-55
2022/10/24 08:46:49;;;;;;;;;20.00;18.00;;;;;22.15;59.20;100518.37;105372;1275;23288;-56
2022/10/24 08:49:16;;;;;;;;;16.50;15.00;;;;;22.16;58.81;100521.41;105320;1282;20881;-55
2022/10/24 08:51:43;;;;;;;;;14.00;13.00;;;;;22.19;58.60;100512.77;105256;1300;19113;-53
2022/10/24 08:54:10;;;;;;;;;13.00;13.00;;;;;22.22;58.73;100516.60;105379;1282;18785;-52
2022/10/24 08:56:38;;;;;;;;;17.00;16.00;;;;;22.24;58.82;100523.58;105378;1289;19530;-51
2022/10/24 08:59:05;;;;;;;;;21.00;18.50;;;;;22.24;58.67;100518.27;105412;1275;18502;-52
2022/10/24 09:01:32;;;;;;;;;22.00;19.00;;;;;22.25;58.50;100515.85;105478;1275;18943;-53
2022/10/24 09:03:59;;;;;;;;;19.00;18.00;;;;;22.23;58.38;100516.79;105554;1282;19301;-56
2022/10/24 09:06:27;;;;;;;;;18.00;15.50;;;;;22.20;58.31;100515.88;105488;1282;18841;-54
2022/10/24 09:08:54;;;;;;;;;14.50;13.50;;;;;22.19;58.37;100513.55;105445;1291;18810;-54
2022/10/24 09:11:21;;;;;;;;;13.00;13.00;;;;;22.19;58.27;100517.54;105474;1282;22143;-52
2022/10/24 09:13:48;;;;;;;;;11.00;11.00;;;;;22.22;58.30;100520.05;105457;1282;20351;-54
2022/10/24 09:16:16;;;;;;;;;14.00;10.00;;;;;22.23;58.30;100521.88;105541;1282;18803;-51
2022/10/24 09:18:43;;;;;;;;;13.00;13.00;;;;;22.18;58.43;100527.78;105482;1298;19605;-52
2022/10/24 09:21:10;;;;;;;;;10.00;10.00;;;;;22.18;58.67;100530.55;105392;1282;20291;-52
2022/10/24 09:23:37;;;;;;;;;13.00;13.00;;;;;22.18;58.76;100528.50;105527;1282;18821;-52
2022/10/24 09:26:05;;;;;;;;;13.00;13.00;;;;;22.19;58.63;100519.11;105541;1277;20806;-53
2022/10/24 09:28:32;;;;;;;;;;;;;;;22.20;58.73;100509.41;105526;1297;18911;-51
2022/10/24 09:30:59;;;;;;;;;11.50;10.00;;;;;22.20;58.69;100501.64;105585;1281;22432;-54
2022/10/24 09:33:26;;;;;;;;;10.00;10.00;;;;;22.22;58.57;100506.18;105553;1298;21150;-53
2022/10/24 09:35:54;;;;;;;;;21.00;19.00;;;;;22.20;58.59;100506.05;105503;1282;22674;-53
2022/10/24 09:38:21;;;;;;;;;22.50;22.00;;;;;22.14;58.68;100498.80;105489;1275;22897;-51
2022/10/24 09:40:48;;;;;;;;;25.50;22.00;;;;;22.06;58.71;100500.67;105547;1304;19478;-51
2022/10/24 09:43:15;;;;;;;;;26.00;25.00;;;;;22.01;58.71;100504.54;105412;1289;18785;-51
2022/10/24 09:45:43;;;;;;;;;29.00;24.00;;;;;21.97;58.63;100504.35;105620;1284;20455;-52
2022/10/24 09:48:10;;;;;;;;;29.00;27.00;;;;;21.95;58.70;100501.65;105522;1282;20972;-51
2022/10/24 09:50:37;;;;;;;;;33.00;29.00;;;;;21.91;58.68;100501.92;105558;1271;18804;-51
2022/10/24 09:53:04;;;;;;;;;29.00;25.50;;;;;21.89;58.54;100507.52;105596;1275;19057;-51
2022/10/24 09:55:33;;;;;;;;;21.00;20.00;;;;;21.93;58.57;100510.33;105559;1289;21725;-53
2022/10/24 09:58:04;;;;;;;;;24.00;24.00;;;;;21.94;58.67;100502.21;105563;1297;22803;-54
2022/10/24 10:00:31;;;;;;;;;26.00;24.50;;;;;21.99;58.52;100504.87;105561;1297;19136;-50
2022/10/24 10:02:58;;;;;;;;;25.00;21.00;;;;;21.99;58.43;100514.61;105526;1282;19634;-49
2022/10/24 10:05:25;;;;;;;;;25.00;23.00;;;;;21.94;58.76;100519.16;105555;1282;20239;-49
2022/10/24 10:07:53;;;;;;;;;;;;;;;21.93;58.78;100511.89;105568;1282;18924;-50
2022/10/24 10:10:20;;;;;;;;;29.00;26.00;;;;;21.93;58.61;100505.96;105542;1291;21031;-49
2022/10/24 10:12:47;;;;;;;;;25.50;23.00;;;;;21.91;58.68;100505.52;105478;1300;18382;-53
2022/10/24 10:15:14;;;;;;;;;23.00;22.00;;;;;21.89;58.50;100502.02;105477;1282;18894;-50
2022/10/24 10:17:42;;;;;;;;;27.00;24.00;;;;;21.90;58.52;100493.98;105403;1284;20901;-53
2022/10/24 10:20:09;;;;;;;;;26.00;23.50;;;;;21.92;58.63;100502.02;105438;1300;18699;-50
2022/10/24 10:22:36;;;;;;;;;25.50;20.50;;;;;21.94;58.45;100505.52;105536;1297;19023;-50
2022/10/24 10:25:03;;;;;;;;;28.00;24.00;;;;;21.93;58.55;100501.59;105571;1284;25394;-53
2022/10/24 10:27:31;;;;;;;;;28.50;25.50;;;;;21.91;58.42;100502.89;105611;1288;22361;-52
2022/10/24 10:29:58;;;;;;;;;25.00;24.00;;;;;21.85;58.53;100503.27;105594;1297;23337;-54
2022/10/24 10:32:25;;;;;;;;;20.50;18.50;;;;;21.87;58.47;100511.15;105596;1279;22656;-52
2022/10/24 10:34:53;;;;;;;;;21.00;20.00;;;;;21.86;58.37;100512.52;105606;1282;22003;-54
2022/10/24 10:37:21;;;;;;;;;19.00;18.00;;;;;21.84;58.48;100516.95;105606;1296;22625;-52
2022/10/24 10:39:49;;;;;;;;;;;;;;;21.83;58.40;100514.21;105679;1290;20668;-52
2022/10/24 10:42:16;;;;;;;;;24.00;20.00;;;;;21.82;58.38;100510.53;105560;1282;20140;-55
2022/10/24 10:44:43;;;;;;;;;22.00;20.00;;;;;21.77;58.31;100506.46;105549;1298;18959;-53
2022/10/24 10:47:11;;;;;;;;;22.00;21.00;;;;;21.69;58.31;100512.07;105521;1297;23005;-50
2022/10/24 10:49:38;;;;;;;;;21.00;20.50;;;;;21.70;58.30;100515.45;105529;1297;22912;-52
2022/10/24 10:52:06;;;;;;;;;23.00;23.00;;;;;21.74;58.17;100517.97;105584;1295;20166;-52
2022/10/24 10:54:33;;;;;;;;;19.00;19.00;;;;;21.70;58.28;100523.69;105631;1297;20903;-51
2022/10/24 10:57:00;;;;;;;;;22.00;21.00;;;;;21.69;58.20;100528.75;105512;1275;20246;-55
2022/10/24 10:59:28;;;;;;;;;20.00;16.00;;;;;21.71;58.11;100527.35;105557;1275;18934;-53
2022/10/24 11:01:56;;;;;;;;;21.00;20.00;;;;;21.73;57.98;100533.50;105584;1289;21026;-53
2022/10/24 11:04:24;;;;;;;;;24.00;20.00;;;;;21.73;57.99;100529.64;105568;1306;22050;-54
2022/10/24 11:06:51;;;;;;;;;;;;;;;21.73;58.04;100520.95;105580;1279;22811;-53
2022/10/24 11:09:18;;;;;;;;;22.00;20.00;;;;;21.71;57.95;100515.59;105542;1282;21032;-51
2022/10/24 11:11:45;;;;;;;;;22.00;21.00;;;;;21.72;58.06;100519.67;105541;1275;19513;-54
2022/10/24 11:14:13;;;;;;;;;20.00;18.00;;;;;21.71;57.92;100516.85;105561;1291;20441;-51
2022/10/24 11:16:40;;;;;;;;;21.00;20.00;;;;;21.67;57.95;100510.58;105576;1297;20755;-53